Flight Track Log - Related Links

Times and Time Zones

All times are in EDT time to prevent confusion due to time zone crossing. See the UAL6008 flight status page for this flight to view local times or setup timezone preferences in your user account.

Time Position Orientation Groundspeed Altitude Reporting Facility
EDT Latitude Longitude Course Direction KTS MPH feet Rate Location/Type
Tue 11:43:57 AM 46.8225 -96.7633 154° Southeast 202 232 3,900  Level Minneapolis Center
Tue 11:44:59 AM 46.7536 -96.7136 154° Southeast 258 297 5,900 1,984 Climbing Minneapolis Center
Tue 11:46:00 AM 46.4936 -96.6394 152° Southeast  Level FlightAware Approximate
Tue 11:46:01 AM 46.6839 -96.6625 153° Southeast 267 307 8,000  Level Minneapolis Center
Tue 11:47:00 AM 46.4114 -96.5755 152° Southeast  Level FlightAware Approximate
Tue 11:47:03 AM 46.6111 -96.6100 154° Southeast 278 320 9,900  Level Minneapolis Center
Tue 11:48:00 AM 46.3294 -96.5110 151° Southeast  Level FlightAware Approximate
Tue 11:48:05 AM 46.5386 -96.5581 154° Southeast 303 349 10,700  Level Minneapolis Center
Tue 11:49:07 AM 46.4486 -96.4931 154° Southeast 345 397 11,400 919 Climbing Minneapolis Center
Tue 11:50:09 AM 46.3547 -96.4256 154° Southeast 361 415 12,600 1,210 Climbing Minneapolis Center
Tue 11:51:11 AM 46.2614 -96.3592 154° Southeast 359 413 13,900 1,065 Climbing Minneapolis Center
Tue 11:52:13 AM 46.1875 -96.3083 155° Southeast 362 417 14,800 1,200 Climbing Minneapolis Center
Tue 11:53:16 AM 46.0833 -96.2339 154° Southeast 360 414 16,400 1,344 Climbing Minneapolis Center
Tue 11:54:18 AM 45.9936 -96.1708 154° Southeast 360 414 17,600 1,016 Climbing Minneapolis Center
Tue 11:55:20 AM 45.8858 -96.0944 154° Southeast 360 414 18,500 919 Climbing Minneapolis Center
Tue 11:56:22 AM 45.7942 -96.0317 154° Southeast 364 419 19,500 968 Climbing Minneapolis Center
Tue 11:57:24 AM 45.7028 -95.9672 154° Southeast 367 422 20,500 968 Climbing Minneapolis Center
Tue 11:58:26 AM 45.6108 -95.9036 154° Southeast 367 422 21,500 878 Climbing Minneapolis Center
Tue 11:59:27 AM 45.5372 -95.8517 154° Southeast 369 425 22,300 871 Climbing Minneapolis Center
Tue 12:00:30 PM 45.4450 -95.7889 154° Southeast 368 423 23,300 1,152 Climbing Minneapolis Center
Tue 12:01:32 PM 45.3189 -95.6958 153° Southeast 366 421 24,700 1,065 Climbing Minneapolis Center
Tue 12:02:34 PM 45.2697 -95.5975 125° Southeast 377 434 25,500 919 Climbing Minneapolis Center
Tue 12:03:36 PM 45.1972 -95.4506 125° Southeast 378 435 26,600 968 Climbing Minneapolis Center
Tue 12:04:38 PM 45.1347 -95.3278 126° Southeast 383 441 27,500 823 Climbing Minneapolis Center
Tue 12:05:40 PM 45.0731 -95.2014 125° Southeast 390 449 28,300 774 Climbing Minneapolis Center
Tue 12:06:42 PM 45.0103 -95.0772 126° Southeast 389 448 29,100 768 Climbing Minneapolis Center
Tue 12:07:45 PM 44.9475 -94.9517 125° Southeast 391 450 29,900 788 Climbing Minneapolis Center
Tue 12:08:59 PM 44.8703 -94.7994 126° Southeast 395 455 30,900 485 Climbing Minneapolis Center
Tue 12:10:01 PM 44.7919 -94.6436 125° Southeast 402 463 31,000 48 Climbing Minneapolis Center
Tue 12:11:03 PM 44.7264 -94.5200 127° Southeast 428 493 31,000  Level Minneapolis Center
Tue 12:12:05 PM 44.6406 -94.3533 126° Southeast 439 505 31,000  Level Minneapolis Center
Tue 12:13:07 PM 44.5678 -94.2122 126° Southeast 447 514 31,000  Level Minneapolis Center
Tue 12:14:09 PM 44.4947 -94.0719 126° Southeast 447 514 31,000  Level Minneapolis Center
Tue 12:15:11 PM 44.4219 -93.9336 126° Southeast 445 512 31,000  Level Minneapolis Center
Tue 12:16:14 PM 44.3486 -93.7944 126° Southeast 446 513 31,000  Level Minneapolis Center
Tue 12:17:16 PM 44.2617 -93.6289 126° Southeast 445 512 31,000  Level Minneapolis Center
Tue 12:18:18 PM 44.1894 -93.4919 126° Southeast 443 510 31,000  Level Minneapolis Center
Tue 12:19:20 PM 44.1167 -93.3561 127° Southeast 441 507 31,000  Level Minneapolis Center
Tue 12:20:21 PM 44.0581 -93.2467 127° Southeast 443 510 31,000  Level Minneapolis Center
Tue 12:21:24 PM 43.9706 -93.0836 127° Southeast 441 507 31,000  Level Minneapolis Center
Tue 12:22:26 PM 43.8822 -92.9203 127° Southeast 443 510 31,000  Level Minneapolis Center
Tue 12:23:28 PM 43.8069 -92.7822 127° Southeast 442 509 31,000  Level Minneapolis Center
Tue 12:24:30 PM 43.7342 -92.6464 127° Southeast 442 509 31,000  Level Minneapolis Center
Tue 12:25:32 PM 43.6594 -92.5117 127° Southeast 444 511 31,000  Level Minneapolis Center
Tue 12:26:34 PM 43.5878 -92.3753 126° Southeast 444 511 31,000  Level Minneapolis Center
Tue 12:27:36 PM 43.5122 -92.2433 128° Southeast 443 510 31,000  Level Minneapolis Center
Tue 12:28:38 PM 43.4231 -92.0853 128° Southeast 439 505 31,000  Level Minneapolis Center
Tue 12:29:40 PM 43.3494 -91.9506 127° Southeast 441 507 31,000  Level Minneapolis Center
Tue 12:30:42 PM 43.2758 -91.8183 127° Southeast 441 507 31,000  Level Minneapolis Center
Tue 12:31:45 PM 43.2017 -91.6856 127° Southeast 440 506 31,000  Level Minneapolis Center
Tue 12:32:47 PM 43.1456 -91.5372 117° Southeast 444 511 31,000  Level Minneapolis Center
Tue 12:33:49 PM 43.0925 -91.3858 116° Southeast 443 510 31,000  Level Minneapolis Center
Tue 12:34:36 PM 43.0503 -91.2667 116° Southeast 441 507 31,000  Level Chicago Center
Tue 12:35:39 PM 42.9869 -91.0869 116° Southeast 438 504 31,000  Level Chicago Center
Tue 12:36:41 PM 42.9358 -90.9381 115° Southeast 436 502 31,000  Level Chicago Center
Tue 12:37:43 PM 42.8844 -90.7908 115° Southeast 433 498 31,000  Level Chicago Center
Tue 12:38:45 PM 42.8314 -90.6447 116° Southeast 433 498 31,000  Level Chicago Center
Tue 12:39:47 PM 42.7794 -90.4981 116° Southeast 433 498 31,000  Level Chicago Center
Tue 12:40:49 PM 42.7167 -90.3239 116° Southeast 430 495 31,000 -242 Level Chicago Center
Tue 12:41:51 PM 42.6650 -90.1789 116° Southeast 430 495 30,500 -1,452 Descending Chicago Center
Tue 12:42:53 PM 42.6103 -90.0311 117° Southeast 439 505 28,000 -2,371 Descending Chicago Center
Tue 12:43:55 PM 42.5539 -89.8728 116° Southeast 442 509 25,600 -2,129 Descending Chicago Center
Tue 12:44:57 PM 42.5178 -89.7128 107° East 445 512 23,600 -1,984 Descending Chicago Center
Tue 12:45:59 PM 42.5006 -89.5489 98° East 443 510 21,500 -1,887 Descending Chicago Center
Tue 12:47:01 PM 42.4800 -89.3644 99° East 426 490 19,700 -1,742 Descending Chicago Center
Tue 12:48:03 PM 42.4614 -89.2114 99° East 415 478 17,900 -1,694 Descending Chicago Center
Tue 12:49:05 PM 42.4422 -89.0586 100° East 414 476 16,200 -1,645 Descending Chicago Center
Tue 12:50:07 PM 42.4258 -88.9122 99° East 402 463 14,500 -1,536 Descending Chicago Center
Tue 12:51:10 PM 42.4086 -88.7739 100° East 382 440 13,000 -1,728 Descending Chicago Center
Tue 12:52:12 PM 42.3894 -88.6164 99° East 369 425 10,900 -1,452 Descending Chicago Center
Tue 12:53:14 PM 42.3700 -88.4825 101° East 366 421 10,000 -435 Descending Chicago Center
Tue 12:54:16 PM 42.3286 -88.3708 117° Southeast 355 409 10,000  Level Chicago Center
Tue 12:55:18 PM 42.2689 -88.2708 129° Southeast 347 399 10,000 -774 Level Chicago Center
Tue 12:56:20 PM 42.2117 -88.1742 129° Southeast 279 321 8,400 -1,452 Descending Chicago Center
Tue 12:57:22 PM 42.1581 -88.1036 136° Southeast 272 313 7,000 -629 Descending Chicago Center
Tue 12:58:24 PM 42.1069 -88.0450 140° Southeast 249 287 7,100  Climbing Chicago Center
Tue 12:59:27 PM 42.1000 -87.9500 96° East 217 250 7,000 -49 Descending Chicago TRACON
Tue 01:00:27 PM 42.1000 -87.8833 90° East 218 251 7,000 -667 Level Chicago TRACON
Tue 01:01:33 PM 42.0833 -87.7833 103° East 220 253 5,600 -1,296 Descending Chicago TRACON
Tue 01:02:32 PM 42.0911 -87.7106 82° East 219 252 4,300 -1,388 Descending Chicago Center
Tue 01:03:34 PM 42.0531 -87.6781 148° Southeast 212 244 2,800 -1,452 Descending Chicago Center

Login

Don't have an account? Register now (free) for customized features, flight alerts, and more!